sensor_id;sensor_type;location;lat;lon;timestamp;P1;durP1;ratioP1;P2;durP2;ratioP2
12373;SDS011;6251;51.762;8.660;2023-04-25T01:08:49;19.58;;;7.85;;
12373;SDS011;6251;51.762;8.660;2023-04-25T02:50:51;19.20;;;10.15;;
12373;SDS011;6251;51.762;8.660;2023-04-25T04:01:54;14.10;;;8.27;;
12373;SDS011;6251;51.762;8.660;2023-04-25T04:11:55;17.12;;;8.02;;
12373;SDS011;6251;51.762;8.660;2023-04-25T04:21:55;16.15;;;7.32;;
12373;SDS011;6251;51.762;8.660;2023-04-25T04:31:56;24.12;;;11.05;;
12373;SDS011;6251;51.762;8.660;2023-04-25T04:41:56;28.17;;;12.07;;
12373;SDS011;6251;51.762;8.660;2023-04-25T04:51:57;17.95;;;7.10;;
12373;SDS011;6251;51.762;8.660;2023-04-25T05:01:59;15.25;;;6.43;;
12373;SDS011;6251;51.762;8.660;2023-04-25T05:12:09;13.70;;;6.12;;
12373;SDS011;6251;51.762;8.660;2023-04-25T05:22:10;19.17;;;6.62;;
12373;SDS011;6251;51.762;8.660;2023-04-25T05:32:11;17.20;;;6.30;;
12373;SDS011;6251;51.762;8.660;2023-04-25T05:42:12;14.13;;;5.60;;
12373;SDS011;6251;51.762;8.660;2023-04-25T05:52:12;19.25;;;6.97;;
12373;SDS011;6251;51.762;8.660;2023-04-25T06:02:15;24.00;;;5.85;;
12373;SDS011;6251;51.762;8.660;2023-04-25T06:12:16;15.20;;;5.90;;
12373;SDS011;6251;51.762;8.660;2023-04-25T06:22:16;22.62;;;6.10;;
12373;SDS011;6251;51.762;8.660;2023-04-25T06:32:17;21.87;;;6.05;;
12373;SDS011;6251;51.762;8.660;2023-04-25T06:42:18;19.58;;;5.62;;
12373;SDS011;6251;51.762;8.660;2023-04-25T06:52:18;15.60;;;6.03;;
12373;SDS011;6251;51.762;8.660;2023-04-25T07:02:19;12.90;;;5.53;;
12373;SDS011;6251;51.762;8.660;2023-04-25T07:12:21;12.15;;;4.32;;
12373;SDS011;6251;51.762;8.660;2023-04-25T07:22:22;15.50;;;4.78;;
12373;SDS011;6251;51.762;8.660;2023-04-25T07:32:22;13.70;;;3.75;;
12373;SDS011;6251;51.762;8.660;2023-04-25T07:42:23;8.65;;;3.30;;
12373;SDS011;6251;51.762;8.660;2023-04-25T07:52:24;12.10;;;3.47;;
12373;SDS011;6251;51.762;8.660;2023-04-25T08:02:24;6.70;;;3.03;;
12373;SDS011;6251;51.762;8.660;2023-04-25T08:12:28;12.65;;;3.45;;
12373;SDS011;6251;51.762;8.660;2023-04-25T08:22:29;9.95;;;2.92;;
12373;SDS011;6251;51.762;8.660;2023-04-25T08:32:30;5.95;;;2.75;;
12373;SDS011;6251;51.762;8.660;2023-04-25T08:42:31;6.35;;;2.50;;
12373;SDS011;6251;51.762;8.660;2023-04-25T08:52:36;4.35;;;2.47;;
12373;SDS011;6251;51.762;8.660;2023-04-25T09:02:39;8.32;;;3.17;;
12373;SDS011;6251;51.762;8.660;2023-04-25T09:12:42;5.18;;;2.80;;
12373;SDS011;6251;51.762;8.660;2023-04-25T09:22:42;6.07;;;2.22;;
12373;SDS011;6251;51.762;8.660;2023-04-25T09:32:46;8.25;;;2.50;;
12373;SDS011;6251;51.762;8.660;2023-04-25T09:42:47;7.45;;;3.50;;
12373;SDS011;6251;51.762;8.660;2023-04-25T09:52:56;7.95;;;2.55;;
12373;SDS011;6251;51.762;8.660;2023-04-25T10:03:05;4.65;;;2.00;;
12373;SDS011;6251;51.762;8.660;2023-04-25T10:13:06;3.97;;;2.10;;
12373;SDS011;6251;51.762;8.660;2023-04-25T10:23:13;2.92;;;1.48;;
12373;SDS011;6251;51.762;8.660;2023-04-25T10:33:18;3.85;;;1.98;;
12373;SDS011;6251;51.762;8.660;2023-04-25T10:43:39;4.25;;;1.80;;
12373;SDS011;6251;51.762;8.660;2023-04-25T10:53:39;4.22;;;1.50;;
12373;SDS011;6251;51.762;8.660;2023-04-25T11:03:41;5.30;;;1.58;;
12373;SDS011;6251;51.762;8.660;2023-04-25T11:13:48;5.47;;;1.60;;
12373;SDS011;6251;51.762;8.660;2023-04-25T11:23:50;3.95;;;1.62;;
12373;SDS011;6251;51.762;8.660;2023-04-25T11:33:52;2.50;;;1.35;;
12373;SDS011;6251;51.762;8.660;2023-04-25T11:43:55;2.83;;;1.87;;
12373;SDS011;6251;51.762;8.660;2023-04-25T11:53:55;3.22;;;1.73;;
12373;SDS011;6251;51.762;8.660;2023-04-25T12:03:56;1.70;;;1.30;;
12373;SDS011;6251;51.762;8.660;2023-04-25T12:14:01;3.83;;;1.45;;
12373;SDS011;6251;51.762;8.660;2023-04-25T12:24:14;3.47;;;1.30;;
12373;SDS011;6251;51.762;8.660;2023-04-25T12:34:25;2.72;;;1.48;;
12373;SDS011;6251;51.762;8.660;2023-04-25T12:44:26;3.10;;;1.62;;
12373;SDS011;6251;51.762;8.660;2023-04-25T12:54:26;1.08;;;1.05;;
12373;SDS011;6251;51.762;8.660;2023-04-25T13:04:27;1.70;;;1.23;;
12373;SDS011;6251;51.762;8.660;2023-04-25T13:14:27;2.85;;;1.35;;
12373;SDS011;6251;51.762;8.660;2023-04-25T13:24:28;2.97;;;1.33;;
12373;SDS011;6251;51.762;8.660;2023-04-25T13:34:29;3.40;;;1.27;;
12373;SDS011;6251;51.762;8.660;2023-04-25T13:44:30;3.25;;;1.40;;
12373;SDS011;6251;51.762;8.660;2023-04-25T13:54:31;1.08;;;0.95;;
12373;SDS011;6251;51.762;8.660;2023-04-25T14:04:31;1.30;;;1.20;;
12373;SDS011;6251;51.762;8.660;2023-04-25T14:14:32;1.67;;;1.30;;
12373;SDS011;6251;51.762;8.660;2023-04-25T14:24:33;3.00;;;2.22;;
12373;SDS011;6251;51.762;8.660;2023-04-25T14:34:34;1.62;;;1.30;;
12373;SDS011;6251;51.762;8.660;2023-04-25T14:44:35;1.48;;;1.35;;
12373;SDS011;6251;51.762;8.660;2023-04-25T14:54:35;1.58;;;1.37;;
12373;SDS011;6251;51.762;8.660;2023-04-25T15:04:36;2.08;;;1.58;;
12373;SDS011;6251;51.762;8.660;2023-04-25T15:14:37;4.93;;;2.17;;
12373;SDS011;6251;51.762;8.660;2023-04-25T15:24:37;4.32;;;2.92;;
12373;SDS011;6251;51.762;8.660;2023-04-25T15:34:38;2.58;;;1.92;;
12373;SDS011;6251;51.762;8.660;2023-04-25T15:44:39;3.62;;;2.10;;
12373;SDS011;6251;51.762;8.660;2023-04-25T15:54:39;3.62;;;1.70;;
12373;SDS011;6251;51.762;8.660;2023-04-25T16:04:40;2.75;;;1.87;;
12373;SDS011;6251;51.762;8.660;2023-04-25T16:14:40;2.15;;;1.67;;
12373;SDS011;6251;51.762;8.660;2023-04-25T16:24:42;2.20;;;1.80;;
12373;SDS011;6251;51.762;8.660;2023-04-25T16:34:43;2.70;;;1.77;;
12373;SDS011;6251;51.762;8.660;2023-04-25T16:44:44;3.05;;;1.45;;
12373;SDS011;6251;51.762;8.660;2023-04-25T16:54:44;2.92;;;2.12;;
12373;SDS011;6251;51.762;8.660;2023-04-25T17:04:45;2.72;;;1.80;;
12373;SDS011;6251;51.762;8.660;2023-04-25T17:14:47;2.53;;;2.30;;
12373;SDS011;6251;51.762;8.660;2023-04-25T17:24:48;3.25;;;1.90;;
12373;SDS011;6251;51.762;8.660;2023-04-25T17:34:49;4.15;;;1.87;;
12373;SDS011;6251;51.762;8.660;2023-04-25T17:44:50;6.62;;;1.92;;
12373;SDS011;6251;51.762;8.660;2023-04-25T17:54:53;2.17;;;1.90;;
12373;SDS011;6251;51.762;8.660;2023-04-25T18:04:54;4.00;;;2.10;;
12373;SDS011;6251;51.762;8.660;2023-04-25T18:14:55;3.20;;;1.70;;
12373;SDS011;6251;51.762;8.660;2023-04-25T18:24:56;3.67;;;1.90;;
12373;SDS011;6251;51.762;8.660;2023-04-25T18:34:57;2.03;;;1.83;;
12373;SDS011;6251;51.762;8.660;2023-04-25T18:44:58;3.33;;;1.90;;
12373;SDS011;6251;51.762;8.660;2023-04-25T18:54:58;4.37;;;1.60;;
12373;SDS011;6251;51.762;8.660;2023-04-25T19:05:02;3.10;;;1.83;;
12373;SDS011;6251;51.762;8.660;2023-04-25T19:15:03;2.15;;;1.90;;
12373;SDS011;6251;51.762;8.660;2023-04-25T19:25:04;3.17;;;2.20;;
12373;SDS011;6251;51.762;8.660;2023-04-25T19:35:06;1.90;;;1.70;;
12373;SDS011;6251;51.762;8.660;2023-04-25T19:45:07;2.78;;;1.85;;
12373;SDS011;6251;51.762;8.660;2023-04-25T19:55:09;6.18;;;1.85;;
12373;SDS011;6251;51.762;8.660;2023-04-25T20:05:10;3.45;;;1.70;;
12373;SDS011;6251;51.762;8.660;2023-04-25T20:15:12;3.08;;;1.92;;
12373;SDS011;6251;51.762;8.660;2023-04-25T20:25:13;3.12;;;1.80;;
12373;SDS011;6251;51.762;8.660;2023-04-25T20:35:13;4.18;;;2.00;;
12373;SDS011;6251;51.762;8.660;2023-04-25T20:45:14;4.13;;;2.00;;
12373;SDS011;6251;51.762;8.660;2023-04-25T20:55:15;2.55;;;1.60;;
12373;SDS011;6251;51.762;8.660;2023-04-25T23:07:20;6.73;;;2.90;;
